sensor_id;sensor_type;location;lat;lon;timestamp;P1;durP1;ratioP1;P2;durP2;ratioP2
47335;SDS011;33068;51.990;5.926;2023-05-13T00:01:58;6.97;;;3.75;;
47335;SDS011;33068;51.990;5.926;2023-05-13T00:04:25;4.80;;;2.88;;
47335;SDS011;33068;51.990;5.926;2023-05-13T00:06:52;7.05;;;3.70;;
47335;SDS011;33068;51.990;5.926;2023-05-13T00:09:19;3.97;;;3.67;;
47335;SDS011;33068;51.990;5.926;2023-05-13T00:11:46;7.05;;;3.67;;
47335;SDS011;33068;51.990;5.926;2023-05-13T00:14:13;7.85;;;3.90;;
47335;SDS011;33068;51.990;5.926;2023-05-13T00:16:41;4.30;;;3.58;;
47335;SDS011;33068;51.990;5.926;2023-05-13T00:19:08;5.63;;;3.38;;
47335;SDS011;33068;51.990;5.926;2023-05-13T00:21:35;6.63;;;3.92;;
47335;SDS011;33068;51.990;5.926;2023-05-13T00:24:03;6.18;;;4.13;;
47335;SDS011;33068;51.990;5.926;2023-05-13T00:26:31;9.20;;;4.35;;
47335;SDS011;33068;51.990;5.926;2023-05-13T00:28:58;6.10;;;3.88;;
47335;SDS011;33068;51.990;5.926;2023-05-13T00:31:25;5.78;;;3.60;;
47335;SDS011;33068;51.990;5.926;2023-05-13T00:33:54;5.63;;;4.50;;
47335;SDS011;33068;51.990;5.926;2023-05-13T00:36:21;9.38;;;3.92;;
47335;SDS011;33068;51.990;5.926;2023-05-13T00:38:48;6.22;;;4.05;;
47335;SDS011;33068;51.990;5.926;2023-05-13T00:41:15;4.82;;;3.75;;
47335;SDS011;33068;51.990;5.926;2023-05-13T00:43:43;6.07;;;4.15;;
47335;SDS011;33068;51.990;5.926;2023-05-13T00:46:11;8.00;;;4.45;;
47335;SDS011;33068;51.990;5.926;2023-05-13T00:48:38;4.78;;;4.05;;
47335;SDS011;33068;51.990;5.926;2023-05-13T00:51:07;7.18;;;4.32;;
47335;SDS011;33068;51.990;5.926;2023-05-13T00:53:34;7.40;;;4.15;;
47335;SDS011;33068;51.990;5.926;2023-05-13T00:56:01;12.15;;;4.82;;
47335;SDS011;33068;51.990;5.926;2023-05-13T00:58:28;8.70;;;4.50;;
47335;SDS011;33068;51.990;5.926;2023-05-13T01:00:59;6.93;;;4.35;;
47335;SDS011;33068;51.990;5.926;2023-05-13T01:03:34;6.22;;;4.32;;
47335;SDS011;33068;51.990;5.926;2023-05-13T01:06:11;7.00;;;4.43;;
47335;SDS011;33068;51.990;5.926;2023-05-13T01:08:45;4.45;;;4.00;;
47335;SDS011;33068;51.990;5.926;2023-05-13T01:11:18;7.40;;;4.85;;
47335;SDS011;33068;51.990;5.926;2023-05-13T01:13:48;5.95;;;4.43;;
47335;SDS011;33068;51.990;5.926;2023-05-13T01:16:24;6.65;;;4.60;;
47335;SDS011;33068;51.990;5.926;2023-05-13T01:18:56;5.88;;;4.60;;
47335;SDS011;33068;51.990;5.926;2023-05-13T01:21:28;8.10;;;4.78;;
47335;SDS011;33068;51.990;5.926;2023-05-13T01:23:59;6.18;;;4.20;;
47335;SDS011;33068;51.990;5.926;2023-05-13T01:26:26;8.93;;;4.93;;
47335;SDS011;33068;51.990;5.926;2023-05-13T01:28:54;7.88;;;4.65;;
47335;SDS011;33068;51.990;5.926;2023-05-13T01:31:22;9.70;;;5.25;;
47335;SDS011;33068;51.990;5.926;2023-05-13T01:33:50;5.63;;;4.38;;
47335;SDS011;33068;51.990;5.926;2023-05-13T01:36:18;9.52;;;4.78;;
47335;SDS011;33068;51.990;5.926;2023-05-13T01:38:47;8.93;;;4.60;;
47335;SDS011;33068;51.990;5.926;2023-05-13T01:41:17;9.65;;;5.15;;
47335;SDS011;33068;51.990;5.926;2023-05-13T01:43:45;7.90;;;5.45;;
47335;SDS011;33068;51.990;5.926;2023-05-13T01:46:12;4.82;;;4.38;;
47335;SDS011;33068;51.990;5.926;2023-05-13T01:48:39;7.18;;;5.30;;
47335;SDS011;33068;51.990;5.926;2023-05-13T01:51:06;6.22;;;5.05;;
47335;SDS011;33068;51.990;5.926;2023-05-13T01:53:34;7.22;;;4.47;;
47335;SDS011;33068;51.990;5.926;2023-05-13T01:56:03;10.85;;;5.40;;
47335;SDS011;33068;51.990;5.926;2023-05-13T01:58:30;11.48;;;5.45;;
47335;SDS011;33068;51.990;5.926;2023-05-13T02:00:59;10.13;;;5.15;;
47335;SDS011;33068;51.990;5.926;2023-05-13T02:03:26;7.97;;;4.47;;
47335;SDS011;33068;51.990;5.926;2023-05-13T02:05:53;9.80;;;5.57;;
47335;SDS011;33068;51.990;5.926;2023-05-13T02:08:20;6.88;;;5.82;;
47335;SDS011;33068;51.990;5.926;2023-05-13T02:10:53;9.48;;;5.07;;
47335;SDS011;33068;51.990;5.926;2023-05-13T02:13:22;10.60;;;5.70;;
47335;SDS011;33068;51.990;5.926;2023-05-13T02:15:49;6.57;;;5.35;;
47335;SDS011;33068;51.990;5.926;2023-05-13T02:18:16;10.45;;;6.60;;
47335;SDS011;33068;51.990;5.926;2023-05-13T02:20:43;7.25;;;5.68;;
47335;SDS011;33068;51.990;5.926;2023-05-13T02:23:10;8.07;;;6.00;;
47335;SDS011;33068;51.990;5.926;2023-05-13T02:25:37;8.07;;;5.53;;
47335;SDS011;33068;51.990;5.926;2023-05-13T02:28:04;6.28;;;5.40;;
47335;SDS011;33068;51.990;5.926;2023-05-13T02:30:33;8.48;;;6.10;;
47335;SDS011;33068;51.990;5.926;2023-05-13T02:33:00;8.85;;;6.07;;
47335;SDS011;33068;51.990;5.926;2023-05-13T02:35:27;9.32;;;6.68;;
47335;SDS011;33068;51.990;5.926;2023-05-13T02:37:55;15.60;;;6.05;;
47335;SDS011;33068;51.990;5.926;2023-05-13T02:40:22;11.25;;;5.95;;
47335;SDS011;33068;51.990;5.926;2023-05-13T02:42:49;9.18;;;6.72;;
47335;SDS011;33068;51.990;5.926;2023-05-13T02:45:23;10.38;;;6.30;;
47335;SDS011;33068;51.990;5.926;2023-05-13T02:47:55;9.48;;;6.25;;
47335;SDS011;33068;51.990;5.926;2023-05-13T02:50:22;7.25;;;5.90;;
47335;SDS011;33068;51.990;5.926;2023-05-13T02:52:49;11.77;;;6.55;;
47335;SDS011;33068;51.990;5.926;2023-05-13T02:55:16;8.52;;;6.47;;
47335;SDS011;33068;51.990;5.926;2023-05-13T02:57:43;10.40;;;6.25;;
47335;SDS011;33068;51.990;5.926;2023-05-13T03:00:11;7.82;;;6.47;;
47335;SDS011;33068;51.990;5.926;2023-05-13T03:02:39;10.18;;;6.70;;
47335;SDS011;33068;51.990;5.926;2023-05-13T03:05:07;11.20;;;6.97;;
47335;SDS011;33068;51.990;5.926;2023-05-13T03:07:35;11.48;;;7.07;;
47335;SDS011;33068;51.990;5.926;2023-05-13T03:10:03;11.00;;;7.15;;
47335;SDS011;33068;51.990;5.926;2023-05-13T03:12:31;9.48;;;7.00;;
47335;SDS011;33068;51.990;5.926;2023-05-13T03:14:58;9.88;;;7.35;;
47335;SDS011;33068;51.990;5.926;2023-05-13T03:17:25;9.13;;;7.43;;
47335;SDS011;33068;51.990;5.926;2023-05-13T03:19:55;10.18;;;7.60;;
47335;SDS011;33068;51.990;5.926;2023-05-13T03:22:23;10.30;;;7.80;;
47335;SDS011;33068;51.990;5.926;2023-05-13T03:24:51;8.65;;;7.57;;
47335;SDS011;33068;51.990;5.926;2023-05-13T03:27:20;11.40;;;7.97;;
47335;SDS011;33068;51.990;5.926;2023-05-13T03:29:47;10.38;;;7.68;;
47335;SDS011;33068;51.990;5.926;2023-05-13T03:32:14;10.45;;;8.07;;
47335;SDS011;33068;51.990;5.926;2023-05-13T03:34:41;9.05;;;7.10;;
47335;SDS011;33068;51.990;5.926;2023-05-13T03:37:09;9.85;;;8.38;;
47335;SDS011;33068;51.990;5.926;2023-05-13T03:39:37;10.05;;;8.40;;
47335;SDS011;33068;51.990;5.926;2023-05-13T03:42:04;10.88;;;8.77;;
47335;SDS011;33068;51.990;5.926;2023-05-13T03:44:32;13.20;;;8.35;;
47335;SDS011;33068;51.990;5.926;2023-05-13T03:46:59;10.50;;;8.88;;
47335;SDS011;33068;51.990;5.926;2023-05-13T03:49:27;16.05;;;9.18;;
47335;SDS011;33068;51.990;5.926;2023-05-13T03:51:56;13.48;;;8.93;;
47335;SDS011;33068;51.990;5.926;2023-05-13T03:54:23;13.25;;;9.15;;
47335;SDS011;33068;51.990;5.926;2023-05-13T03:56:51;11.20;;;8.75;;
47335;SDS011;33068;51.990;5.926;2023-05-13T03:59:18;13.43;;;9.27;;
47335;SDS011;33068;51.990;5.926;2023-05-13T04:01:45;13.15;;;9.10;;
47335;SDS011;33068;51.990;5.926;2023-05-13T04:04:13;11.25;;;9.35;;
47335;SDS011;33068;51.990;5.926;2023-05-13T04:06:40;17.27;;;9.60;;
47335;SDS011;33068;51.990;5.926;2023-05-13T04:09:07;12.32;;;9.32;;
47335;SDS011;33068;51.990;5.926;2023-05-13T04:11:35;14.30;;;9.55;;
47335;SDS011;33068;51.990;5.926;2023-05-13T04:14:03;12.10;;;9.23;;
47335;SDS011;33068;51.990;5.926;2023-05-13T04:16:30;13.32;;;9.18;;
47335;SDS011;33068;51.990;5.926;2023-05-13T04:18:58;13.20;;;9.55;;
47335;SDS011;33068;51.990;5.926;2023-05-13T04:21:26;14.75;;;10.30;;
47335;SDS011;33068;51.990;5.926;2023-05-13T04:23:53;11.18;;;8.95;;
47335;SDS011;33068;51.990;5.926;2023-05-13T04:26:20;15.40;;;9.73;;
47335;SDS011;33068;51.990;5.926;2023-05-13T04:28:47;17.60;;;10.38;;
47335;SDS011;33068;51.990;5.926;2023-05-13T04:31:16;16.45;;;10.38;;
47335;SDS011;33068;51.990;5.926;2023-05-13T04:33:43;12.70;;;10.10;;
47335;SDS011;33068;51.990;5.926;2023-05-13T04:36:11;18.27;;;9.63;;
47335;SDS011;33068;51.990;5.926;2023-05-13T04:38:38;20.83;;;11.15;;
47335;SDS011;33068;51.990;5.926;2023-05-13T04:41:05;13.48;;;10.90;;
47335;SDS011;33068;51.990;5.926;2023-05-13T04:43:37;17.27;;;10.80;;
47335;SDS011;33068;51.990;5.926;2023-05-13T04:46:04;16.45;;;10.15;;
47335;SDS011;33068;51.990;5.926;2023-05-13T04:48:32;12.82;;;10.95;;
47335;SDS011;33068;51.990;5.926;2023-05-13T04:50:59;11.82;;;9.77;;
47335;SDS011;33068;51.990;5.926;2023-05-13T04:53:27;12.77;;;10.40;;
47335;SDS011;33068;51.990;5.926;2023-05-13T04:55:58;12.18;;;10.85;;
47335;SDS011;33068;51.990;5.926;2023-05-13T04:58:27;10.82;;;9.70;;
47335;SDS011;33068;51.990;5.926;2023-05-13T05:00:54;13.55;;;9.85;;
47335;SDS011;33068;51.990;5.926;2023-05-13T05:03:22;15.98;;;10.85;;
47335;SDS011;33068;51.990;5.926;2023-05-13T05:05:50;16.33;;;10.23;;
47335;SDS011;33068;51.990;5.926;2023-05-13T05:08:18;14.05;;;11.57;;
47335;SDS011;33068;51.990;5.926;2023-05-13T05:10:47;14.38;;;10.55;;
47335;SDS011;33068;51.990;5.926;2023-05-13T05:13:14;13.15;;;10.38;;
47335;SDS011;33068;51.990;5.926;2023-05-13T05:15:42;14.63;;;10.40;;
47335;SDS011;33068;51.990;5.926;2023-05-13T05:18:10;12.35;;;10.15;;
47335;SDS011;33068;51.990;5.926;2023-05-13T05:20:39;15.60;;;10.75;;
47335;SDS011;33068;51.990;5.926;2023-05-13T05:23:15;18.38;;;10.23;;
47335;SDS011;33068;51.990;5.926;2023-05-13T05:25:44;16.48;;;10.57;;
47335;SDS011;33068;51.990;5.926;2023-05-13T05:28:13;14.73;;;10.48;;
47335;SDS011;33068;51.990;5.926;2023-05-13T05:30:41;13.50;;;10.10;;
47335;SDS011;33068;51.990;5.926;2023-05-13T05:33:15;15.88;;;10.68;;
47335;SDS011;33068;51.990;5.926;2023-05-13T05:35:42;12.48;;;10.00;;
47335;SDS011;33068;51.990;5.926;2023-05-13T05:38:13;13.90;;;11.10;;
47335;SDS011;33068;51.990;5.926;2023-05-13T05:40:42;14.88;;;9.77;;
47335;SDS011;33068;51.990;5.926;2023-05-13T05:43:10;15.07;;;10.13;;
47335;SDS011;33068;51.990;5.926;2023-05-13T05:45:37;14.73;;;10.52;;
47335;SDS011;33068;51.990;5.926;2023-05-13T05:48:07;13.05;;;9.68;;
47335;SDS011;33068;51.990;5.926;2023-05-13T05:50:34;15.77;;;10.55;;
47335;SDS011;33068;51.990;5.926;2023-05-13T05:53:04;14.40;;;10.07;;
47335;SDS011;33068;51.990;5.926;2023-05-13T05:55:35;13.35;;;8.57;;
47335;SDS011;33068;51.990;5.926;2023-05-13T05:58:02;12.63;;;9.20;;
47335;SDS011;33068;51.990;5.926;2023-05-13T06:00:33;13.13;;;9.00;;
47335;SDS011;33068;51.990;5.926;2023-05-13T06:03:00;11.48;;;8.70;;
47335;SDS011;33068;51.990;5.926;2023-05-13T06:05:27;13.38;;;8.93;;
47335;SDS011;33068;51.990;5.926;2023-05-13T06:07:55;11.20;;;8.57;;
47335;SDS011;33068;51.990;5.926;2023-05-13T06:10:22;15.52;;;8.75;;
47335;SDS011;33068;51.990;5.926;2023-05-13T06:12:50;11.15;;;8.77;;
47335;SDS011;33068;51.990;5.926;2023-05-13T06:15:18;11.07;;;8.48;;
47335;SDS011;33068;51.990;5.926;2023-05-13T06:17:45;10.50;;;8.75;;
47335;SDS011;33068;51.990;5.926;2023-05-13T06:20:12;12.70;;;9.05;;
47335;SDS011;33068;51.990;5.926;2023-05-13T06:22:39;12.88;;;8.77;;
47335;SDS011;33068;51.990;5.926;2023-05-13T06:25:06;9.45;;;8.25;;
47335;SDS011;33068;51.990;5.926;2023-05-13T06:27:34;10.20;;;8.35;;
47335;SDS011;33068;51.990;5.926;2023-05-13T06:30:03;14.35;;;8.60;;
47335;SDS011;33068;51.990;5.926;2023-05-13T06:32:31;11.55;;;8.45;;
47335;SDS011;33068;51.990;5.926;2023-05-13T06:34:58;11.23;;;8.00;;
47335;SDS011;33068;51.990;5.926;2023-05-13T06:37:26;13.55;;;8.10;;
47335;SDS011;33068;51.990;5.926;2023-05-13T06:39:53;11.65;;;7.53;;
47335;SDS011;33068;51.990;5.926;2023-05-13T06:42:20;15.77;;;7.30;;
47335;SDS011;33068;51.990;5.926;2023-05-13T06:44:55;9.63;;;7.30;;
47335;SDS011;33068;51.990;5.926;2023-05-13T06:47:27;11.45;;;7.07;;
47335;SDS011;33068;51.990;5.926;2023-05-13T06:49:54;12.18;;;6.95;;
47335;SDS011;33068;51.990;5.926;2023-05-13T06:52:21;11.20;;;7.35;;
47335;SDS011;33068;51.990;5.926;2023-05-13T06:54:48;10.07;;;7.40;;
47335;SDS011;33068;51.990;5.926;2023-05-13T06:57:15;10.18;;;6.85;;
47335;SDS011;33068;51.990;5.926;2023-05-13T06:59:43;12.30;;;7.50;;
47335;SDS011;33068;51.990;5.926;2023-05-13T07:02:10;11.07;;;6.85;;
47335;SDS011;33068;51.990;5.926;2023-05-13T07:04:38;9.23;;;6.43;;
47335;SDS011;33068;51.990;5.926;2023-05-13T07:07:05;9.95;;;6.78;;
47335;SDS011;33068;51.990;5.926;2023-05-13T07:09:33;9.13;;;6.57;;
47335;SDS011;33068;51.990;5.926;2023-05-13T07:12:00;9.27;;;6.68;;
47335;SDS011;33068;51.990;5.926;2023-05-13T07:14:27;12.32;;;6.65;;
47335;SDS011;33068;51.990;5.926;2023-05-13T07:16:54;8.88;;;6.57;;
47335;SDS011;33068;51.990;5.926;2023-05-13T07:19:22;12.68;;;7.05;;
47335;SDS011;33068;51.990;5.926;2023-05-13T07:21:51;9.68;;;6.75;;
47335;SDS011;33068;51.990;5.926;2023-05-13T07:24:18;6.57;;;5.88;;
47335;SDS011;33068;51.990;5.926;2023-05-13T07:26:45;6.93;;;6.22;;
47335;SDS011;33068;51.990;5.926;2023-05-13T07:29:12;10.75;;;6.28;;
47335;SDS011;33068;51.990;5.926;2023-05-13T07:31:39;7.32;;;5.57;;
47335;SDS011;33068;51.990;5.926;2023-05-13T07:34:06;7.53;;;5.50;;
47335;SDS011;33068;51.990;5.926;2023-05-13T07:36:33;7.25;;;5.40;;
47335;SDS011;33068;51.990;5.926;2023-05-13T07:39:02;7.25;;;5.15;;
47335;SDS011;33068;51.990;5.926;2023-05-13T07:41:29;7.70;;;4.75;;
47335;SDS011;33068;51.990;5.926;2023-05-13T07:43:56;5.57;;;4.50;;
47335;SDS011;33068;51.990;5.926;2023-05-13T07:46:23;6.75;;;4.15;;
47335;SDS011;33068;51.990;5.926;2023-05-13T07:48:50;7.38;;;4.50;;
47335;SDS011;33068;51.990;5.926;2023-05-13T07:51:17;6.18;;;3.70;;
47335;SDS011;33068;51.990;5.926;2023-05-13T07:53:44;9.00;;;4.07;;
47335;SDS011;33068;51.990;5.926;2023-05-13T07:56:12;5.72;;;3.72;;
47335;SDS011;33068;51.990;5.926;2023-05-13T07:58:39;4.78;;;4.05;;
47335;SDS011;33068;51.990;5.926;2023-05-13T08:01:06;4.60;;;3.67;;
47335;SDS011;33068;51.990;5.926;2023-05-13T08:03:33;7.32;;;3.42;;
47335;SDS011;33068;51.990;5.926;2023-05-13T08:06:01;5.35;;;3.75;;
47335;SDS011;33068;51.990;5.926;2023-05-13T08:08:28;5.00;;;3.50;;
47335;SDS011;33068;51.990;5.926;2023-05-13T08:10:55;10.52;;;3.33;;
47335;SDS011;33068;51.990;5.926;2023-05-13T08:13:23;7.60;;;3.28;;
47335;SDS011;33068;51.990;5.926;2023-05-13T08:15:50;3.67;;;2.60;;
47335;SDS011;33068;51.990;5.926;2023-05-13T08:18:18;6.10;;;2.35;;
47335;SDS011;33068;51.990;5.926;2023-05-13T08:20:45;7.10;;;3.38;;
47335;SDS011;33068;51.990;5.926;2023-05-13T08:23:12;4.50;;;2.60;;
47335;SDS011;33068;51.990;5.926;2023-05-13T08:25:39;4.25;;;2.42;;
47335;SDS011;33068;51.990;5.926;2023-05-13T08:28:06;6.47;;;2.65;;
47335;SDS011;33068;51.990;5.926;2023-05-13T08:30:34;4.47;;;2.33;;
47335;SDS011;33068;51.990;5.926;2023-05-13T08:33:01;3.22;;;2.67;;
47335;SDS011;33068;51.990;5.926;2023-05-13T08:35:28;2.47;;;2.22;;
47335;SDS011;33068;51.990;5.926;2023-05-13T08:37:56;3.80;;;1.88;;
47335;SDS011;33068;51.990;5.926;2023-05-13T08:40:23;2.47;;;2.08;;
47335;SDS011;33068;51.990;5.926;2023-05-13T08:42:50;3.92;;;2.67;;
47335;SDS011;33068;51.990;5.926;2023-05-13T08:45:21;4.85;;;2.20;;
47335;SDS011;33068;51.990;5.926;2023-05-13T08:47:53;6.68;;;2.15;;
47335;SDS011;33068;51.990;5.926;2023-05-13T08:50:22;3.70;;;2.30;;
47335;SDS011;33068;51.990;5.926;2023-05-13T08:52:51;3.28;;;1.85;;
47335;SDS011;33068;51.990;5.926;2023-05-13T08:55:18;6.18;;;2.58;;
47335;SDS011;33068;51.990;5.926;2023-05-13T08:57:46;6.18;;;1.98;;
47335;SDS011;33068;51.990;5.926;2023-05-13T09:00:13;4.80;;;1.95;;
47335;SDS011;33068;51.990;5.926;2023-05-13T09:02:41;3.30;;;1.98;;
47335;SDS011;33068;51.990;5.926;2023-05-13T09:05:09;7.75;;;2.67;;
47335;SDS011;33068;51.990;5.926;2023-05-13T09:07:37;3.63;;;1.83;;
47335;SDS011;33068;51.990;5.926;2023-05-13T09:10:05;7.45;;;2.80;;
47335;SDS011;33068;51.990;5.926;2023-05-13T09:12:40;8.13;;;2.20;;
47335;SDS011;33068;51.990;5.926;2023-05-13T09:15:10;7.03;;;2.33;;
47335;SDS011;33068;51.990;5.926;2023-05-13T09:17:38;3.40;;;2.35;;
47335;SDS011;33068;51.990;5.926;2023-05-13T09:20:07;7.65;;;2.83;;
47335;SDS011;33068;51.990;5.926;2023-05-13T09:22:39;3.15;;;2.08;;
47335;SDS011;33068;51.990;5.926;2023-05-13T09:25:09;4.85;;;2.72;;
47335;SDS011;33068;51.990;5.926;2023-05-13T09:27:38;6.85;;;2.40;;
47335;SDS011;33068;51.990;5.926;2023-05-13T09:30:07;7.07;;;2.53;;
47335;SDS011;33068;51.990;5.926;2023-05-13T09:32:35;4.75;;;2.45;;
47335;SDS011;33068;51.990;5.926;2023-05-13T09:35:13;3.45;;;2.40;;
47335;SDS011;33068;51.990;5.926;2023-05-13T09:37:45;3.05;;;2.30;;
47335;SDS011;33068;51.990;5.926;2023-05-13T09:40:14;2.67;;;2.05;;
47335;SDS011;33068;51.990;5.926;2023-05-13T09:42:43;5.72;;;2.88;;
47335;SDS011;33068;51.990;5.926;2023-05-13T09:45:11;6.50;;;1.95;;
47335;SDS011;33068;51.990;5.926;2023-05-13T09:47:39;6.85;;;2.80;;
47335;SDS011;33068;51.990;5.926;2023-05-13T09:50:07;2.60;;;2.13;;
47335;SDS011;33068;51.990;5.926;2023-05-13T09:52:37;4.07;;;2.47;;
47335;SDS011;33068;51.990;5.926;2023-05-13T09:55:07;8.32;;;2.42;;
47335;SDS011;33068;51.990;5.926;2023-05-13T09:57:34;3.28;;;2.50;;
47335;SDS011;33068;51.990;5.926;2023-05-13T10:00:03;4.45;;;2.47;;
47335;SDS011;33068;51.990;5.926;2023-05-13T10:02:37;2.55;;;1.88;;
47335;SDS011;33068;51.990;5.926;2023-05-13T10:05:05;2.35;;;1.60;;
47335;SDS011;33068;51.990;5.926;2023-05-13T10:07:36;8.20;;;2.00;;
47335;SDS011;33068;51.990;5.926;2023-05-13T10:10:04;4.80;;;2.25;;
47335;SDS011;33068;51.990;5.926;2023-05-13T10:12:34;3.38;;;1.77;;
47335;SDS011;33068;51.990;5.926;2023-05-13T10:15:04;2.90;;;1.80;;
47335;SDS011;33068;51.990;5.926;2023-05-13T10:17:32;3.33;;;1.75;;
47335;SDS011;33068;51.990;5.926;2023-05-13T10:20:00;4.63;;;2.08;;
47335;SDS011;33068;51.990;5.926;2023-05-13T10:22:30;4.35;;;2.03;;
47335;SDS011;33068;51.990;5.926;2023-05-13T10:25:00;5.07;;;2.03;;
47335;SDS011;33068;51.990;5.926;2023-05-13T10:27:30;4.10;;;1.95;;
47335;SDS011;33068;51.990;5.926;2023-05-13T10:29:58;5.45;;;1.92;;
47335;SDS011;33068;51.990;5.926;2023-05-13T10:32:27;4.47;;;2.08;;
47335;SDS011;33068;51.990;5.926;2023-05-13T10:34:56;4.80;;;2.03;;
47335;SDS011;33068;51.990;5.926;2023-05-13T10:37:35;9.05;;;1.75;;
47335;SDS011;33068;51.990;5.926;2023-05-13T10:40:31;4.45;;;2.05;;
47335;SDS011;33068;51.990;5.926;2023-05-13T10:43:21;2.33;;;2.00;;
47335;SDS011;33068;51.990;5.926;2023-05-13T10:45:50;4.82;;;2.10;;
47335;SDS011;33068;51.990;5.926;2023-05-13T10:48:21;3.47;;;2.22;;
47335;SDS011;33068;51.990;5.926;2023-05-13T10:50:49;3.95;;;1.60;;
47335;SDS011;33068;51.990;5.926;2023-05-13T10:53:19;2.83;;;1.33;;
47335;SDS011;33068;51.990;5.926;2023-05-13T10:55:51;3.50;;;1.65;;
47335;SDS011;33068;51.990;5.926;2023-05-13T10:58:27;3.13;;;1.80;;
47335;SDS011;33068;51.990;5.926;2023-05-13T11:00:58;4.80;;;2.00;;
47335;SDS011;33068;51.990;5.926;2023-05-13T11:03:38;3.17;;;1.98;;
47335;SDS011;33068;51.990;5.926;2023-05-13T11:06:15;4.15;;;1.70;;
47335;SDS011;33068;51.990;5.926;2023-05-13T11:08:44;3.30;;;2.00;;
47335;SDS011;33068;51.990;5.926;2023-05-13T11:11:23;10.32;;;2.30;;
47335;SDS011;33068;51.990;5.926;2023-05-13T11:13:52;3.75;;;1.60;;
47335;SDS011;33068;51.990;5.926;2023-05-13T11:16:21;4.38;;;2.40;;
47335;SDS011;33068;51.990;5.926;2023-05-13T11:18:48;4.78;;;2.22;;
47335;SDS011;33068;51.990;5.926;2023-05-13T11:21:16;3.25;;;2.00;;
47335;SDS011;33068;51.990;5.926;2023-05-13T11:23:55;4.90;;;1.88;;
47335;SDS011;33068;51.990;5.926;2023-05-13T11:26:24;6.03;;;1.90;;
47335;SDS011;33068;51.990;5.926;2023-05-13T11:29:06;5.72;;;2.08;;
47335;SDS011;33068;51.990;5.926;2023-05-13T11:31:43;4.03;;;1.83;;
47335;SDS011;33068;51.990;5.926;2023-05-13T11:34:12;4.82;;;2.47;;
47335;SDS011;33068;51.990;5.926;2023-05-13T11:36:41;4.55;;;1.90;;
47335;SDS011;33068;51.990;5.926;2023-05-13T11:39:10;3.60;;;1.50;;
47335;SDS011;33068;51.990;5.926;2023-05-13T11:41:41;2.40;;;1.60;;
47335;SDS011;33068;51.990;5.926;2023-05-13T11:44:10;2.83;;;2.08;;
47335;SDS011;33068;51.990;5.926;2023-05-13T11:46:47;3.67;;;2.05;;
47335;SDS011;33068;51.990;5.926;2023-05-13T11:49:28;9.82;;;1.95;;
47335;SDS011;33068;51.990;5.926;2023-05-13T11:51:59;7.13;;;2.03;;
47335;SDS011;33068;51.990;5.926;2023-05-13T11:54:26;7.72;;;2.00;;
47335;SDS011;33068;51.990;5.926;2023-05-13T11:56:55;3.40;;;1.70;;
47335;SDS011;33068;51.990;5.926;2023-05-13T11:59:22;4.75;;;1.73;;
47335;SDS011;33068;51.990;5.926;2023-05-13T12:01:59;5.78;;;2.00;;
47335;SDS011;33068;51.990;5.926;2023-05-13T12:04:27;4.97;;;2.00;;
47335;SDS011;33068;51.990;5.926;2023-05-13T12:06:55;4.50;;;2.10;;
47335;SDS011;33068;51.990;5.926;2023-05-13T12:09:22;3.95;;;1.55;;
47335;SDS011;33068;51.990;5.926;2023-05-13T12:11:50;5.53;;;2.00;;
47335;SDS011;33068;51.990;5.926;2023-05-13T12:14:19;4.18;;;2.15;;
47335;SDS011;33068;51.990;5.926;2023-05-13T12:16:46;4.20;;;2.08;;
47335;SDS011;33068;51.990;5.926;2023-05-13T12:19:14;2.33;;;1.85;;
47335;SDS011;33068;51.990;5.926;2023-05-13T12:21:41;2.60;;;1.85;;
47335;SDS011;33068;51.990;5.926;2023-05-13T12:24:18;4.40;;;2.03;;
47335;SDS011;33068;51.990;5.926;2023-05-13T12:26:46;2.85;;;2.00;;
47335;SDS011;33068;51.990;5.926;2023-05-13T12:29:13;6.10;;;1.98;;
47335;SDS011;33068;51.990;5.926;2023-05-13T12:31:42;4.80;;;2.03;;
47335;SDS011;33068;51.990;5.926;2023-05-13T12:34:29;1.83;;;1.42;;
47335;SDS011;33068;51.990;5.926;2023-05-13T12:36:56;4.90;;;1.90;;
47335;SDS011;33068;51.990;5.926;2023-05-13T12:39:36;3.03;;;1.58;;
47335;SDS011;33068;51.990;5.926;2023-05-13T12:42:03;5.55;;;1.70;;
47335;SDS011;33068;51.990;5.926;2023-05-13T12:44:30;2.53;;;1.30;;
47335;SDS011;33068;51.990;5.926;2023-05-13T12:46:59;2.60;;;1.52;;
47335;SDS011;33068;51.990;5.926;2023-05-13T12:49:26;4.50;;;1.40;;
47335;SDS011;33068;51.990;5.926;2023-05-13T12:51:53;2.13;;;1.30;;
47335;SDS011;33068;51.990;5.926;2023-05-13T12:54:21;3.60;;;1.48;;
47335;SDS011;33068;51.990;5.926;2023-05-13T12:56:48;1.45;;;1.30;;
47335;SDS011;33068;51.990;5.926;2023-05-13T12:59:15;4.68;;;1.25;;
47335;SDS011;33068;51.990;5.926;2023-05-13T13:01:43;2.70;;;1.35;;
47335;SDS011;33068;51.990;5.926;2023-05-13T13:04:13;2.35;;;1.35;;
47335;SDS011;33068;51.990;5.926;2023-05-13T13:06:40;3.58;;;1.52;;
47335;SDS011;33068;51.990;5.926;2023-05-13T13:09:08;3.67;;;1.45;;
47335;SDS011;33068;51.990;5.926;2023-05-13T13:11:35;2.42;;;1.55;;
47335;SDS011;33068;51.990;5.926;2023-05-13T13:14:03;5.82;;;1.75;;
47335;SDS011;33068;51.990;5.926;2023-05-13T13:16:30;6.70;;;1.63;;
47335;SDS011;33068;51.990;5.926;2023-05-13T13:18:57;3.83;;;1.30;;
47335;SDS011;33068;51.990;5.926;2023-05-13T13:21:26;3.05;;;1.60;;
47335;SDS011;33068;51.990;5.926;2023-05-13T13:23:53;3.60;;;1.80;;
47335;SDS011;33068;51.990;5.926;2023-05-13T13:26:20;3.22;;;1.77;;
47335;SDS011;33068;51.990;5.926;2023-05-13T13:28:48;4.97;;;1.50;;
47335;SDS011;33068;51.990;5.926;2023-05-13T13:31:15;2.45;;;1.70;;
47335;SDS011;33068;51.990;5.926;2023-05-13T13:33:42;9.45;;;1.60;;
47335;SDS011;33068;51.990;5.926;2023-05-13T13:36:09;3.53;;;2.03;;
47335;SDS011;33068;51.990;5.926;2023-05-13T13:38:38;2.33;;;1.70;;
47335;SDS011;33068;51.990;5.926;2023-05-13T13:41:05;3.88;;;1.77;;
47335;SDS011;33068;51.990;5.926;2023-05-13T13:43:32;4.72;;;1.60;;
47335;SDS011;33068;51.990;5.926;2023-05-13T13:45:59;2.72;;;1.95;;
47335;SDS011;33068;51.990;5.926;2023-05-13T13:48:26;6.05;;;2.03;;
47335;SDS011;33068;51.990;5.926;2023-05-13T13:50:53;3.70;;;1.40;;
47335;SDS011;33068;51.990;5.926;2023-05-13T13:53:20;3.45;;;1.52;;
47335;SDS011;33068;51.990;5.926;2023-05-13T13:55:49;2.45;;;1.60;;
47335;SDS011;33068;51.990;5.926;2023-05-13T13:58:16;4.03;;;1.77;;
47335;SDS011;33068;51.990;5.926;2023-05-13T14:00:43;6.25;;;2.03;;
47335;SDS011;33068;51.990;5.926;2023-05-13T14:03:10;3.28;;;1.58;;
47335;SDS011;33068;51.990;5.926;2023-05-13T14:05:37;2.60;;;1.70;;
47335;SDS011;33068;51.990;5.926;2023-05-13T14:08:04;5.10;;;1.88;;
47335;SDS011;33068;51.990;5.926;2023-05-13T14:10:31;5.13;;;1.85;;
47335;SDS011;33068;51.990;5.926;2023-05-13T14:12:59;5.65;;;1.70;;
47335;SDS011;33068;51.990;5.926;2023-05-13T14:15:27;4.32;;;1.77;;
47335;SDS011;33068;51.990;5.926;2023-05-13T14:17:55;5.43;;;1.98;;
47335;SDS011;33068;51.990;5.926;2023-05-13T14:20:22;3.53;;;1.73;;
47335;SDS011;33068;51.990;5.926;2023-05-13T14:22:49;2.25;;;1.70;;
47335;SDS011;33068;51.990;5.926;2023-05-13T14:25:16;5.47;;;1.80;;
47335;SDS011;33068;51.990;5.926;2023-05-13T14:27:43;10.13;;;1.65;;
47335;SDS011;33068;51.990;5.926;2023-05-13T14:30:12;9.57;;;2.08;;
47335;SDS011;33068;51.990;5.926;2023-05-13T14:32:39;4.40;;;1.63;;
47335;SDS011;33068;51.990;5.926;2023-05-13T14:35:09;3.05;;;1.70;;
47335;SDS011;33068;51.990;5.926;2023-05-13T14:37:36;3.60;;;1.42;;
47335;SDS011;33068;51.990;5.926;2023-05-13T14:40:03;1.98;;;1.40;;
47335;SDS011;33068;51.990;5.926;2023-05-13T14:42:31;2.85;;;1.88;;
47335;SDS011;33068;51.990;5.926;2023-05-13T14:44:58;3.67;;;1.70;;
47335;SDS011;33068;51.990;5.926;2023-05-13T14:47:26;4.07;;;1.98;;
47335;SDS011;33068;51.990;5.926;2023-05-13T14:49:53;3.65;;;2.05;;
47335;SDS011;33068;51.990;5.926;2023-05-13T14:52:20;7.65;;;2.15;;